Time;durP1;ratioP1;P1;durP2;ratioP2;P2;SDS_P1;SDS_P2;PMS_P1;PMS_P2;Temp;Humidity;BMP_temperature;BMP_pressure;BME280_temperature;BME280_humidity;BME280_pressure;Samples;Min_cycle;Max_cycle;Signal;HPM_P1;HPM_P2
2022/07/24 00:02:06;;;;;;;3.03;2.30;;;12.90;99.90;;;;;;4903840;29;20035;-72
2022/07/24 00:04:33;;;;;;;3.17;2.20;;;12.90;99.90;;;;;;4919347;29;20035;-73
2022/07/24 00:07:03;;;;;;;3.08;2.30;;;13.00;99.90;;;;;;4936523;29;20031;-73
2022/07/24 00:09:31;;;;;;;3.65;1.88;;;13.00;99.90;;;;;;4903584;29;20036;-73
2022/07/24 00:11:59;;;;;;;3.15;2.38;;;13.20;99.90;;;;;;4919623;29;20114;-73
2022/07/24 00:14:27;;;;;;;3.08;2.03;;;13.20;99.90;;;;;;4903276;29;20062;-73
2022/07/24 00:16:54;;;;;;;2.95;2.08;;;13.30;99.90;;;;;;4919610;29;20127;-73
2022/07/24 00:19:21;;;;;;;2.78;1.95;;;13.40;99.90;;;;;;4919126;29;20098;-73
2022/07/24 00:21:49;;;;;;;3.25;2.00;;;13.50;99.90;;;;;;4918826;29;20032;-73
2022/07/24 00:24:16;;;;;;;2.70;2.10;;;13.70;99.90;;;;;;4918732;29;20056;-73
2022/07/24 00:26:43;;;;;;;2.83;2.50;;;13.60;99.90;;;;;;4918892;29;20059;-73
2022/07/24 00:29:11;;;;;;;3.60;2.10;;;13.70;99.90;;;;;;4936097;29;20373;-73
2022/07/24 00:31:38;;;;;;;3.92;2.80;;;13.80;99.90;;;;;;4935971;29;20052;-73
2022/07/24 00:34:05;;;;;;;4.88;2.35;;;13.90;99.90;;;;;;4935991;29;20079;-73
2022/07/24 00:36:33;;;;;;;3.72;2.92;;;14.10;99.90;;;;;;4918797;29;20023;-72
2022/07/24 00:39:00;;;;;;;4.78;2.40;;;14.10;99.90;;;;;;4918786;29;20027;-71
2022/07/24 00:41:27;;;;;;;4.10;2.17;;;14.00;99.90;;;;;;4935816;29;20600;-72
2022/07/24 00:44:15;;;;;;;3.78;2.90;;;14.10;99.90;;;;;;4918733;29;20031;-73
2022/07/24 00:46:44;;;;;;;6.00;2.90;;;14.20;99.90;;;;;;4918671;29;20032;-73
2022/07/24 00:49:14;;;;;;;5.15;2.83;;;14.40;99.90;;;;;;4918842;29;20027;-71
2022/07/24 00:51:43;;;;;;;3.65;2.60;;;14.50;99.90;;;;;;4918691;29;20039;-73
2022/07/24 00:54:12;;;;;;;4.75;2.45;;;14.50;99.90;;;;;;4918682;29;20032;-75
2022/07/24 00:56:45;;;;;;;3.63;2.47;;;14.60;99.90;;;;;;4935684;29;20024;-70
2022/07/24 00:59:12;;;;;;;4.53;2.78;;;14.70;99.90;;;;;;4903035;29;20063;-73
2022/07/24 01:01:40;;;;;;;3.80;2.58;;;14.70;99.90;;;;;;4935592;29;20452;-72
2022/07/24 01:04:08;;;;;;;4.18;3.13;;;14.80;99.90;;;;;;4918533;29;20051;-72
2022/07/24 01:06:35;;;;;;;4.82;3.33;;;14.90;99.90;;;;;;4935541;29;20054;-73
2022/07/24 01:09:03;;;;;;;5.13;3.20;;;15.00;99.90;;;;;;4935627;29;20028;-72
2022/07/24 01:11:31;;;;;;;7.15;3.28;;;15.10;99.90;;;;;;4935584;29;20079;-73
2022/07/24 01:13:59;;;;;;;5.13;3.25;;;15.10;99.90;;;;;;4918426;29;20377;-72
2022/07/24 01:16:26;;;;;;;5.15;3.22;;;15.30;99.90;;;;;;4935614;29;20059;-72
2022/07/24 01:18:53;;;;;;;4.32;2.60;;;15.20;99.90;;;;;;4918436;29;20023;-73
2022/07/24 01:21:21;;;;;;;4.60;2.65;;;15.40;99.90;;;;;;4935526;29;20107;-73
2022/07/24 01:23:48;;;;;;;5.15;2.85;;;15.50;99.90;;;;;;4935396;29;20055;-73
2022/07/24 01:26:15;;;;;;;4.32;2.70;;;15.50;99.90;;;;;;4937147;29;20091;-73
2022/07/24 01:28:44;;;;;;;4.88;2.65;;;15.70;99.90;;;;;;4922027;29;20023;-72
2022/07/24 01:31:12;;;;;;;3.40;2.38;;;15.70;99.90;;;;;;4906415;29;20067;-73
2022/07/24 01:33:39;;;;;;;3.97;2.15;;;15.90;99.90;;;;;;4938905;29;20028;-73
2022/07/24 01:36:07;;;;;;;5.68;2.70;;;15.90;99.90;;;;;;4939014;29;20034;-74
2022/07/24 01:38:34;;;;;;;3.60;2.63;;;15.80;99.90;;;;;;4921807;29;20505;-73
2022/07/24 01:41:02;;;;;;;4.10;2.65;;;15.80;99.90;;;;;;4921843;29;20020;-73
2022/07/24 01:43:29;;;;;;;6.70;2.25;;;15.90;99.90;;;;;;4938846;29;20036;-73
2022/07/24 01:45:57;;;;;;;4.05;1.60;;;16.00;99.90;;;;;;4922247;29;20032;-73
2022/07/24 01:48:24;;;;;;;4.13;2.00;;;16.10;99.90;;;;;;4921585;29;20472;-74
2022/07/24 01:50:51;;;;;;;3.78;1.90;;;16.10;99.90;;;;;;4922235;29;20066;-74
2022/07/24 01:53:19;;;;;;;3.28;1.80;;;16.40;99.90;;;;;;4938884;29;20019;-73
2022/07/24 01:55:46;;;;;;;2.80;2.00;;;16.40;99.90;;;;;;4921492;29;20032;-74
2022/07/24 01:58:14;;;;;;;3.67;2.38;;;16.60;99.90;;;;;;4938484;29;20099;-74
2022/07/24 02:00:41;;;;;;;4.65;1.50;;;16.60;99.90;;;;;;4938530;29;20102;-74
2022/07/24 02:03:08;;;;;;;4.40;1.40;;;16.50;99.90;;;;;;4938664;29;20138;-74
2022/07/24 02:05:36;;;;;;;4.95;1.70;;;16.60;99.90;;;;;;4938411;29;20034;-74
2022/07/24 02:08:03;;;;;;;18.67;6.90;;;16.60;99.90;;;;;;4938380;29;20528;-75
2022/07/24 02:10:31;;;;;;;3.05;1.70;;;16.60;99.90;;;;;;4921279;29;20032;-75
2022/07/24 02:12:58;;;;;;;4.18;1.90;;;16.70;99.90;;;;;;4938406;29;20024;-75
2022/07/24 02:15:26;;;;;;;7.18;3.22;;;16.70;99.90;;;;;;4921146;29;20027;-75
2022/07/24 02:17:56;;;;;;;3.45;1.90;;;16.70;99.90;;;;;;4921098;29;20031;-75
2022/07/24 02:20:24;;;;;;;12.57;7.22;;;16.80;99.90;;;;;;4938185;29;20024;-74
2022/07/24 02:22:51;;;;;;;45.13;28.60;;;16.90;99.90;;;;;;4920616;29;20083;-75
2022/07/24 02:25:19;;;;;;;8.23;5.75;;;16.90;99.90;;;;;;4921114;29;20032;-75
2022/07/24 02:27:47;;;;;;;4.10;2.13;;;17.10;99.90;;;;;;4938136;29;20074;-75
2022/07/24 02:30:18;;;;;;;2.65;1.50;;;17.10;99.90;;;;;;4938087;29;20056;-75
2022/07/24 02:32:46;;;;;;;3.05;1.85;;;17.00;99.90;;;;;;4938097;29;20443;-74
2022/07/24 02:35:13;;;;;;;11.35;6.60;;;17.10;99.90;;;;;;4920715;29;20024;-75
2022/07/24 02:37:42;;;;;;;2.55;1.45;;;17.30;99.90;;;;;;4920846;29;20501;-75
2022/07/24 02:40:11;;;;;;;4.85;2.50;;;17.30;99.90;;;;;;4937794;29;20023;-75
2022/07/24 02:42:39;;;;;;;8.77;4.45;;;17.40;99.90;;;;;;4920736;29;20110;-75
2022/07/24 02:45:07;;;;;;;4.15;1.55;;;17.40;99.90;;;;;;4920743;29;20504;-75
2022/07/24 02:47:36;;;;;;;9.63;5.20;;;17.50;99.90;;;;;;4937756;29;20020;-75
2022/07/24 02:50:04;;;;;;;30.38;19.48;;;17.50;99.90;;;;;;4904970;29;20107;-74
2022/07/24 02:52:31;;;;;;;3.30;1.77;;;17.70;99.90;;;;;;4937644;29;20020;-75
2022/07/24 02:54:59;;;;;;;3.88;1.92;;;17.60;99.90;;;;;;4920676;29;20024;-75
2022/07/24 02:57:26;;;;;;;4.30;1.52;;;17.70;99.90;;;;;;4937687;29;20032;-73
2022/07/24 02:59:53;;;;;;;3.17;0.90;;;17.70;99.90;;;;;;4920424;29;20032;-74
2022/07/24 03:02:21;;;;;;;2.10;1.00;;;17.70;99.90;;;;;;4920360;29;20020;-74
2022/07/24 03:04:49;;;;;;;2.00;0.70;;;17.80;99.90;;;;;;4920103;29;20046;-74
2022/07/24 03:07:16;;;;;;;1.77;1.02;;;17.90;99.90;;;;;;4920231;29;20028;-74
2022/07/24 03:09:43;;;;;;;1.27;0.70;;;18.00;99.90;;;;;;4937377;29;20484;-74
2022/07/24 03:12:11;;;;;;;0.88;0.47;;;17.90;99.90;;;;;;4937360;29;20408;-74
2022/07/24 03:14:38;;;;;;;2.08;0.68;;;18.10;99.90;;;;;;4919947;29;20032;-74
2022/07/24 03:17:05;;;;;;;3.63;0.93;;;18.30;99.90;;;;;;4937353;29;20397;-74
2022/07/24 03:19:33;;;;;;;1.33;0.30;;;18.50;99.90;;;;;;4937137;29;20026;-74
2022/07/24 03:22:00;;;;;;;5.82;2.25;;;18.40;99.90;;;;;;4936959;29;20024;-74
2022/07/24 03:24:27;;;;;;;1.17;0.63;;;18.30;99.90;;;;;;4920278;29;20106;-74
2022/07/24 03:26:55;;;;;;;3.28;1.40;;;18.10;99.90;;;;;;4937354;29;20449;-73
2022/07/24 03:29:22;;;;;;;1.25;0.40;;;18.20;99.90;;;;;;4937060;29;20028;-73
2022/07/24 03:31:49;;;;;;;1.58;0.63;;;18.20;99.90;;;;;;4919832;29;20028;-74
2022/07/24 03:34:21;;;;;;;2.05;0.60;;;18.20;99.90;;;;;;4919729;29;20055;-74
2022/07/24 03:36:48;;;;;;;1.77;0.40;;;18.20;99.90;;;;;;4919786;29;20494;-75
2022/07/24 03:39:16;;;;;;;1.65;0.60;;;18.20;99.90;;;;;;4937016;29;20030;-74
2022/07/24 03:41:43;;;;;;;2.85;1.42;;;18.10;99.90;;;;;;4920001;29;20020;-74
2022/07/24 03:44:10;;;;;;;1.27;0.50;;;18.20;99.90;;;;;;4919863;29;20458;-74
2022/07/24 03:46:38;;;;;;;2.47;0.57;;;18.00;99.90;;;;;;4919687;29;20062;-74
2022/07/24 03:49:06;;;;;;;4.13;0.82;;;18.00;99.90;;;;;;4936272;29;20056;-74
2022/07/24 03:51:34;;;;;;;1.70;0.60;;;18.00;99.90;;;;;;4919715;29;20032;-73
2022/07/24 03:54:03;;;;;;;2.17;1.30;;;17.90;99.90;;;;;;4919451;29;20023;-72
2022/07/24 03:56:31;;;;;;;1.45;0.30;;;18.00;99.90;;;;;;4936528;29;20030;-72
2022/07/24 03:58:58;;;;;;;1.55;0.40;;;17.80;99.90;;;;;;4936820;29;20103;-73
2022/07/24 04:01:25;;;;;;;2.70;0.60;;;17.80;99.90;;;;;;4919188;29;20028;-72
2022/07/24 04:03:53;;;;;;;1.65;0.57;;;17.80;99.90;;;;;;4919279;29;20060;-72
2022/07/24 04:06:20;;;;;;;3.20;0.75;;;17.90;99.90;;;;;;4936303;29;20032;-73
2022/07/24 04:08:47;;;;;;;2.75;1.00;;;18.00;99.90;;;;;;4919128;29;20063;-73
2022/07/24 04:11:15;;;;;;;4.22;0.90;;;18.00;99.90;;;;;;4936251;29;20388;-72
2022/07/24 04:13:42;;;;;;;0.65;0.28;;;18.00;99.90;;;;;;4936178;29;20027;-76
2022/07/24 04:16:09;;;;;;;1.30;0.30;;;18.00;99.90;;;;;;4936683;29;20110;-75
2022/07/24 04:18:37;;;;;;;0.30;0.10;;;17.90;99.90;;;;;;4919399;29;20050;-75
2022/07/24 04:21:05;;;;;;;2.88;0.50;;;17.80;99.90;;;;;;4919371;29;20027;-75
2022/07/24 04:23:32;;;;;;;2.00;0.50;;;17.70;99.90;;;;;;4903421;29;20106;-75
2022/07/24 04:26:00;;;;;;;1.98;0.45;;;17.60;99.90;;;;;;4919275;29;20059;-75
2022/07/24 04:28:27;;;;;;;1.88;0.52;;;17.50;99.90;;;;;;4936590;29;20039;-75
2022/07/24 04:30:54;;;;;;;2.05;0.57;;;17.40;99.90;;;;;;4936445;29;20111;-75
2022/07/24 04:33:22;;;;;;;4.38;0.77;;;17.20;99.90;;;;;;4936294;29;20110;-75
2022/07/24 04:35:49;;;;;;;2.05;0.60;;;17.30;99.90;;;;;;4936222;29;20019;-75
2022/07/24 04:38:16;;;;;;;2.05;0.50;;;17.20;99.90;;;;;;4936391;29;20020;-75
2022/07/24 04:40:44;;;;;;;1.52;0.60;;;17.20;99.90;;;;;;4936703;29;20020;-75
2022/07/24 04:43:11;;;;;;;3.05;0.60;;;17.20;99.90;;;;;;4919294;29;20469;-76
2022/07/24 04:45:39;;;;;;;2.55;0.80;;;17.10;99.90;;;;;;4919066;29;20027;-75
2022/07/24 04:48:06;;;;;;;2.45;0.52;;;17.20;99.90;;;;;;4936021;29;20444;-75
2022/07/24 04:50:34;;;;;;;3.03;0.77;;;17.20;99.90;;;;;;4918976;29;20083;-76
2022/07/24 04:53:02;;;;;;;2.95;1.10;;;17.30;99.90;;;;;;4935954;29;20055;-76
2022/07/24 04:55:30;;;;;;;3.58;0.88;;;17.50;99.90;;;;;;4903801;29;20048;-75
2022/07/24 04:57:57;;;;;;;4.63;0.90;;;17.70;99.90;;;;;;4935932;29;20055;-75
2022/07/24 05:00:24;;;;;;;4.75;0.90;;;17.90;99.90;;;;;;4919386;29;20031;-75
2022/07/24 05:02:52;;;;;;;2.83;0.70;;;18.00;99.90;;;;;;4922507;29;20055;-75
2022/07/24 05:05:19;;;;;;;4.18;1.20;;;18.10;99.90;;;;;;4940043;29;20046;-75
2022/07/24 05:07:46;;;;;;;2.70;0.70;;;17.90;99.90;;;;;;4939787;29;20038;-75
2022/07/24 05:10:14;;;;;;;2.50;0.63;;;17.80;99.90;;;;;;4922621;29;20127;-76
2022/07/24 05:12:41;;;;;;;1.42;0.60;;;17.60;99.90;;;;;;4922336;29;20079;-75
2022/07/24 05:15:09;;;;;;;3.40;0.90;;;17.40;99.90;;;;;;4939670;29;20465;-75
2022/07/24 05:17:37;;;;;;;1.98;0.57;;;17.20;99.90;;;;;;4939800;29;20015;-75
2022/07/24 05:20:06;;;;;;;3.65;0.90;;;17.00;99.90;;;;;;4922503;29;20027;-76
2022/07/24 05:22:33;;;;;;;5.63;1.50;;;16.90;99.90;;;;;;4921899;29;20135;-76
2022/07/24 05:25:01;;;;;;;5.00;1.10;;;16.90;99.90;;;;;;4922432;29;20368;-76
2022/07/24 05:27:28;;;;;;;2.22;1.00;;;16.90;99.90;;;;;;4922113;29;20055;-76
2022/07/24 05:29:55;;;;;;;4.30;1.20;;;16.90;99.90;;;;;;4939642;29;20024;-76
2022/07/24 05:32:23;;;;;;;5.88;1.35;;;16.90;99.90;;;;;;4939063;29;20031;-76
2022/07/24 05:34:50;;;;;;;6.03;1.67;;;16.90;99.90;;;;;;4921842;29;20488;-76
2022/07/24 05:37:17;;;;;;;4.85;1.45;;;16.90;99.90;;;;;;4940037;29;20019;-75
2022/07/24 05:39:45;;;;;;;2.42;0.90;;;16.90;99.90;;;;;;4922130;29;20024;-76
2022/07/24 05:42:12;;;;;;;4.68;0.88;;;16.80;99.90;;;;;;4939285;29;20137;-76
2022/07/24 05:44:40;;;;;;;3.38;1.13;;;16.80;99.90;;;;;;4921806;29;20032;-75
2022/07/24 05:47:07;;;;;;;4.30;1.13;;;16.80;99.90;;;;;;4921905;29;20028;-76
2022/07/24 05:49:34;;;;;;;5.28;0.85;;;16.70;99.90;;;;;;4922098;29;20039;-75
2022/07/24 05:52:02;;;;;;;5.65;1.65;;;16.70;99.90;;;;;;4921921;29;20028;-75
2022/07/24 05:54:29;;;;;;;6.10;1.10;;;16.50;99.90;;;;;;4921831;29;20042;-76
2022/07/24 05:56:57;;;;;;;7.05;1.17;;;16.40;99.90;;;;;;4921919;29;20020;-75
2022/07/24 05:59:24;;;;;;;5.05;0.80;;;16.40;99.90;;;;;;4938792;29;20478;-75
2022/07/24 06:01:51;;;;;;;5.25;0.82;;;16.30;99.90;;;;;;4939023;29;20023;-75
2022/07/24 06:04:19;;;;;;;3.05;0.80;;;16.20;99.90;;;;;;4921446;29;20028;-74
2022/07/24 06:06:49;;;;;;;4.53;1.15;;;16.20;99.90;;;;;;4921544;29;20027;-74
2022/07/24 06:09:16;;;;;;;7.50;1.00;;;16.10;99.90;;;;;;4921516;29;20035;-74
2022/07/24 06:11:43;;;;;;;4.40;0.80;;;16.10;99.90;;;;;;4920928;29;20488;-74
2022/07/24 06:14:11;;;;;;;3.97;0.98;;;16.00;99.90;;;;;;4938336;29;20146;-75
2022/07/24 06:16:38;;;;;;;4.55;1.23;;;15.90;99.90;;;;;;4938258;29;20095;-75
2022/07/24 06:19:05;;;;;;;4.47;0.77;;;15.80;99.90;;;;;;4921109;29;20106;-75
2022/07/24 06:21:33;;;;;;;4.35;1.10;;;15.70;99.90;;;;;;4938370;29;20027;-74
2022/07/24 06:24:00;;;;;;;5.53;1.02;;;15.60;99.90;;;;;;4938059;29;20047;-74
2022/07/24 06:26:27;;;;;;;3.92;1.13;;;15.50;99.90;;;;;;4921347;29;20415;-75
2022/07/24 06:28:54;;;;;;;5.07;1.20;;;15.50;99.90;;;;;;4921015;29;20027;-74
2022/07/24 06:31:23;;;;;;;4.40;0.90;;;15.40;99.90;;;;;;4938203;29;20024;-74
2022/07/24 06:33:50;;;;;;;7.53;1.00;;;15.40;99.90;;;;;;4921158;29;20078;-75
2022/07/24 06:36:17;;;;;;;4.60;1.23;;;15.30;99.90;;;;;;4938413;29;20392;-76
2022/07/24 06:38:45;;;;;;;4.50;0.57;;;15.20;99.90;;;;;;4921228;29;20024;-76
2022/07/24 06:41:12;;;;;;;4.63;0.82;;;15.10;99.90;;;;;;4921066;29;20140;-76
2022/07/24 06:43:39;;;;;;;4.05;0.80;;;15.00;99.90;;;;;;4921203;29;20050;-75
2022/07/24 06:46:07;;;;;;;3.85;0.82;;;14.90;99.90;;;;;;4937955;29;20070;-73
2022/07/24 06:48:34;;;;;;;3.83;0.88;;;14.80;99.90;;;;;;4938047;29;20020;-75
2022/07/24 06:51:02;;;;;;;4.32;1.00;;;14.80;99.90;;;;;;4937831;29;20038;-74
2022/07/24 06:53:29;;;;;;;3.92;0.90;;;14.70;99.90;;;;;;4920873;29;20507;-74
2022/07/24 06:55:56;;;;;;;4.68;1.17;;;14.60;99.90;;;;;;4937993;29;20516;-74
2022/07/24 06:58:24;;;;;;;8.00;1.50;;;14.50;99.90;;;;;;4937981;29;20031;-74
2022/07/24 07:00:51;;;;;;;2.60;0.95;;;14.40;99.90;;;;;;4920494;29;20023;-74
2022/07/24 07:03:19;;;;;;;3.58;1.20;;;14.30;99.90;;;;;;4937667;29;20515;-73
2022/07/24 07:05:46;;;;;;;5.20;1.65;;;14.20;99.90;;;;;;4937596;29;20020;-75
2022/07/24 07:08:14;;;;;;;3.88;1.10;;;14.10;99.90;;;;;;4937723;29;20047;-74
2022/07/24 07:10:41;;;;;;;4.15;1.20;;;14.10;99.90;;;;;;4937483;29;20102;-74
2022/07/24 07:13:08;;;;;;;3.08;1.00;;;14.00;99.90;;;;;;4920335;29;20032;-74
2022/07/24 07:15:36;;;;;;;5.82;1.38;;;13.90;99.90;;;;;;4920438;29;20035;-74
2022/07/24 07:18:03;;;;;;;5.10;1.20;;;13.90;99.90;;;;;;4920443;29;20080;-74
2022/07/24 07:20:31;;;;;;;5.13;1.58;;;13.80;99.90;;;;;;4920362;29;20063;-74
2022/07/24 07:22:58;;;;;;;5.20;1.35;;;13.70;99.90;;;;;;4936507;29;20052;-74
2022/07/24 07:25:25;;;;;;;4.63;1.13;;;13.60;99.90;;;;;;4937326;29;20396;-72
2022/07/24 07:27:53;;;;;;;7.22;1.45;;;13.60;99.90;;;;;;4919903;29;20102;-72
2022/07/24 07:30:21;;;;;;;5.35;1.30;;;13.60;99.90;;;;;;4937184;29;20053;-72
2022/07/24 07:32:48;;;;;;;3.95;1.50;;;13.60;99.90;;;;;;4919899;29;20114;-73
2022/07/24 07:35:16;;;;;;;4.38;1.83;;;13.50;99.90;;;;;;4937035;29;20484;-72
2022/07/24 07:37:46;;;;;;;5.13;1.80;;;13.40;99.90;;;;;;4919683;29;20020;-72
2022/07/24 07:40:13;;;;;;;6.55;3.03;;;13.40;99.90;;;;;;4936913;29;20455;-72
2022/07/24 07:42:40;;;;;;;6.03;3.20;;;13.30;99.90;;;;;;4936883;29;20066;-72
2022/07/24 07:45:08;;;;;;;8.85;3.40;;;13.20;99.90;;;;;;4936721;29;20024;-71
2022/07/24 07:47:39;;;;;;;8.15;3.65;;;13.20;99.90;;;;;;4919487;29;20474;-72
2022/07/24 07:50:07;;;;;;;8.63;3.53;;;13.20;99.90;;;;;;4904061;29;20028;-72
2022/07/24 07:52:35;;;;;;;6.25;3.38;;;13.10;99.90;;;;;;4919643;29;20392;-74
2022/07/24 07:55:03;;;;;;;7.70;3.42;;;13.20;99.90;;;;;;4919724;29;20083;-72
2022/07/24 07:57:31;;;;;;;7.82;3.45;;;13.10;99.90;;;;;;4936820;29;20043;-74
2022/07/24 07:59:58;;;;;;;8.50;5.40;;;13.00;99.90;;;;;;4936724;29;20487;-72
2022/07/24 08:02:25;;;;;;;9.60;6.13;;;13.00;99.90;;;;;;4936758;29;20074;-72
2022/07/24 08:04:52;;;;;;;9.18;4.18;;;12.90;99.90;;;;;;4937292;29;20020;-71
2022/07/24 08:07:20;;;;;;;10.80;5.07;;;12.90;99.90;;;;;;4936651;29;20028;-73
2022/07/24 08:09:47;;;;;;;10.98;5.40;;;12.90;99.90;;;;;;4936678;29;20038;-71
2022/07/24 08:12:14;;;;;;;11.27;4.60;;;12.80;99.90;;;;;;4936579;29;20024;-70
2022/07/24 08:14:42;;;;;;;8.40;3.75;;;12.80;99.90;;;;;;4919351;29;20031;-74
2022/07/24 08:17:09;;;;;;;8.43;4.43;;;12.80;99.90;;;;;;4936446;29;20024;-72
2022/07/24 08:19:37;;;;;;;10.23;4.25;;;12.80;99.90;;;;;;4936297;29;20051;-72
2022/07/24 08:22:07;;;;;;;7.68;4.10;;;12.80;99.90;;;;;;4936081;29;20464;-71
2022/07/24 08:24:35;;;;;;;10.15;4.97;;;12.70;99.90;;;;;;4936195;29;20030;-71
2022/07/24 08:27:02;;;;;;;8.40;5.43;;;12.60;99.90;;;;;;4919149;29;20158;-71
2022/07/24 08:29:29;;;;;;;7.80;5.85;;;12.60;99.90;;;;;;4936151;29;20031;-71
2022/07/24 08:31:57;;;;;;;10.32;5.88;;;12.60;99.90;;;;;;4918834;29;20027;-72
2022/07/24 08:34:25;;;;;;;12.13;5.82;;;12.50;99.90;;;;;;4918657;29;20034;-71
2022/07/24 08:36:52;;;;;;;9.73;5.97;;;12.50;99.90;;;;;;4919430;29;20103;-71
2022/07/24 08:39:19;;;;;;;8.77;5.47;;;12.50;99.90;;;;;;4918939;29;20020;-71
2022/07/24 08:41:47;;;;;;;14.52;7.25;;;12.50;99.90;;;;;;4919209;29;20030;-70
2022/07/24 08:44:14;;;;;;;9.05;5.65;;;12.40;99.90;;;;;;4918834;29;20030;-71
2022/07/24 08:46:43;;;;;;;8.55;5.70;;;12.40;99.90;;;;;;4918992;29;20075;-71
2022/07/24 08:49:15;;;;;;;10.20;5.65;;;12.40;99.90;;;;;;4918758;29;20101;-71
2022/07/24 08:51:44;;;;;;;5.97;5.38;;;12.40;99.90;;;;;;4936351;29;20103;-71
2022/07/24 08:54:11;;;;;;;11.70;6.28;;;12.30;99.90;;;;;;4935784;29;20480;-71
2022/07/24 08:56:40;;;;;;;9.13;6.00;;;12.30;99.90;;;;;;4918781;29;20110;-71
2022/07/24 08:59:20;;;;;;;11.45;5.93;;;12.30;99.90;;;;;;4918719;29;20031;-70
2022/07/24 09:01:50;;;;;;;13.07;6.47;;;12.20;99.90;;;;;;4935802;29;20060;-71
2022/07/24 09:04:44;;;;;;;8.63;6.28;;;12.20;99.90;;;;;;4935889;29;20031;-71
2022/07/24 09:07:14;;;;;;;9.50;6.50;;;12.20;99.90;;;;;;4918468;29;20031;-71
2022/07/24 09:09:44;;;;;;;10.18;6.22;;;12.10;99.90;;;;;;4918708;29;20377;-70
2022/07/24 09:12:17;;;;;;;10.75;6.57;;;12.00;99.90;;;;;;4918550;29;20321;-71
2022/07/24 09:14:47;;;;;;;9.18;7.28;;;12.00;99.90;;;;;;4918033;29;20095;-70
2022/07/24 09:17:19;;;;;;;12.70;8.10;;;11.90;99.90;;;;;;4918269;29;20102;-73
2022/07/24 09:19:58;;;;;;;14.45;7.50;;;12.00;99.90;;;;;;4915749;29;20020;-70
2022/07/24 09:22:40;;;;;;;11.82;7.70;;;11.90;99.90;;;;;;4918328;29;20046;-71
2022/07/24 09:25:27;;;;;;;13.70;8.00;;;11.90;99.90;;;;;;4918526;29;20131;-71
2022/07/24 09:27:59;;;;;;;14.07;8.43;;;11.90;99.90;;;;;;4918683;29;20036;-71
2022/07/24 09:30:38;;;;;;;13.45;9.02;;;11.90;99.90;;;;;;4918569;29;20504;-71
2022/07/24 09:33:13;;;;;;;10.20;7.95;;;11.80;99.90;;;;;;4918491;29;20491;-71
2022/07/24 09:35:43;;;;;;;14.15;8.43;;;11.80;99.90;;;;;;4935926;29;20075;-71
2022/07/24 09:38:13;;;;;;;13.27;8.17;;;11.80;99.90;;;;;;4918438;29;20026;-71
2022/07/24 09:40:46;;;;;;;12.70;8.57;;;11.80;99.90;;;;;;4935485;29;20101;-72
2022/07/24 09:43:19;;;;;;;12.10;8.35;;;11.70;99.90;;;;;;4936043;29;20120;-71
2022/07/24 09:45:58;;;;;;;12.40;8.13;;;11.60;99.90;;;;;;4918159;29;20028;-74
2022/07/24 09:48:30;;;;;;;12.93;8.73;;;11.60;99.90;;;;;;4939031;29;20031;-73
2022/07/24 09:51:04;;;;;;;13.68;8.45;;;11.50;99.90;;;;;;4921880;29;20043;-73
2022/07/24 09:53:34;;;;;;;12.10;7.97;;;11.50;99.90;;;;;;4921972;29;20441;-73
2022/07/24 09:56:07;;;;;;;10.23;7.80;;;11.50;99.90;;;;;;4938854;29;20032;-72
2022/07/24 09:58:37;;;;;;;14.00;9.23;;;11.50;99.90;;;;;;4921898;29;20040;-72
2022/07/24 10:01:07;;;;;;;11.98;9.18;;;11.50;99.90;;;;;;4921924;29;20059;-73
2022/07/24 10:03:39;;;;;;;12.63;9.32;;;11.50;99.90;;;;;;4922140;29;20043;-72
2022/07/24 10:06:09;;;;;;;11.40;9.65;;;11.40;99.90;;;;;;4921580;29;20032;-72
2022/07/24 10:08:39;;;;;;;13.67;9.80;;;11.40;99.90;;;;;;4938677;29;20079;-73
2022/07/24 10:11:07;;;;;;;13.15;9.32;;;11.30;99.90;;;;;;4921430;29;20122;-72
2022/07/24 10:13:35;;;;;;;9.60;8.40;;;11.30;99.90;;;;;;4921701;29;20086;-72
2022/07/24 10:16:14;;;;;;;12.23;9.13;;;11.30;99.90;;;;;;4938374;29;20020;-72
2022/07/24 10:19:09;;;;;;;11.50;9.27;;;11.30;99.90;;;;;;4938461;29;20078;-73
2022/07/24 10:21:38;;;;;;;14.60;9.77;;;11.20;99.90;;;;;;4936287;29;20031;-73
2022/07/24 10:24:05;;;;;;;13.93;10.80;;;11.30;99.90;;;;;;4938088;29;20082;-73
2022/07/24 10:26:46;;;;;;;16.00;11.50;;;11.30;99.90;;;;;;4921194;29;20024;-73
2022/07/24 10:29:16;;;;;;;17.83;10.38;;;11.20;99.90;;;;;;4938449;29;20051;-72
2022/07/24 10:31:52;;;;;;;15.35;11.57;;;11.20;99.90;;;;;;4920998;29;20106;-72
2022/07/24 10:34:31;;;;;;;16.65;11.32;;;11.20;99.90;;;;;;4920777;29;20396;-72
2022/07/24 10:37:15;;;;;;;15.60;10.35;;;11.20;99.90;;;;;;4920982;29;20484;-72
2022/07/24 10:40:06;;;;;;;18.08;11.10;;;11.10;99.90;;;;;;4920935;29;20028;-73
2022/07/24 10:42:34;;;;;;;13.00;11.10;;;11.00;99.90;;;;;;4920923;29;20074;-72
2022/07/24 10:45:31;;;;;;;14.82;10.70;;;11.00;99.90;;;;;;4920820;29;20074;-72
2022/07/24 10:47:58;;;;;;;15.07;11.50;;;11.10;99.90;;;;;;4905634;29;20039;-72
2022/07/24 10:51:01;;;;;;;14.30;11.20;;;11.10;99.90;;;;;;4937762;29;20047;-72
2022/07/24 10:53:38;;;;;;;17.88;12.18;;;11.00;99.90;;;;;;4936263;29;20024;-72
2022/07/24 10:56:23;;;;;;;16.38;12.25;;;11.00;99.90;;;;;;4920643;29;20122;-72
2022/07/24 10:59:12;;;;;;;17.92;13.70;;;11.00;99.90;;;;;;4937680;29;20020;-72
2022/07/24 11:01:47;;;;;;;16.30;13.07;;;11.00;99.90;;;;;;4905092;29;20035;-72
2022/07/24 11:04:20;;;;;;;17.45;12.85;;;10.90;99.90;;;;;;4937784;29;20574;-72
2022/07/24 11:06:53;;;;;;;16.05;12.55;;;10.90;99.90;;;;;;4920461;29;20071;-72
2022/07/24 11:09:22;;;;;;;14.65;12.00;;;10.90;99.90;;;;;;4920440;29;20047;-72
2022/07/24 11:11:53;;;;;;;17.50;12.88;;;10.90;99.90;;;;;;4920365;29;20032;-72
2022/07/24 11:14:40;;;;;;;16.95;12.07;;;10.80;99.90;;;;;;4937479;29;20527;-73
2022/07/24 11:17:40;;;;;;;19.08;12.25;;;10.80;99.90;;;;;;4938049;29;20050;-74
2022/07/24 11:20:13;;;;;;;13.63;11.35;;;10.80;99.90;;;;;;4938058;29;20019;-72
2022/07/24 11:22:44;;;;;;;14.57;12.48;;;10.70;99.90;;;;;;4916968;29;20531;-72
2022/07/24 11:25:15;;;;;;;;;;;10.70;99.90;;;;;;4918965;29;20016;-73
2022/07/24 11:27:48;;;;;;;15.27;11.80;;;10.60;99.90;;;;;;4918215;29;20383;-71
2022/07/24 11:30:17;;;;;;;17.77;12.45;;;10.60;99.90;;;;;;4918248;29;20028;-72
2022/07/24 11:32:46;;;;;;;14.00;11.57;;;10.60;99.90;;;;;;4917948;29;20114;-73
2022/07/24 11:35:13;;;;;;;14.15;12.05;;;10.60;99.90;;;;;;4922196;29;20028;-74
2022/07/24 11:37:42;;;;;;;17.85;12.95;;;10.60;99.90;;;;;;4919093;29;20039;-72
2022/07/24 11:40:14;;;;;;;16.10;11.93;;;10.50;99.90;;;;;;4917239;29;20112;-71
2022/07/24 11:42:41;;;;;;;14.77;11.80;;;10.50;99.90;;;;;;4921488;29;20499;-72
2022/07/24 11:45:09;;;;;;;14.40;12.52;;;10.50;99.90;;;;;;4918668;29;20031;-73
2022/07/24 11:47:36;;;;;;;18.00;12.38;;;10.40;99.90;;;;;;4917981;29;20035;-72
2022/07/24 11:50:06;;;;;;;13.77;12.15;;;10.40;99.90;;;;;;4918018;29;20052;-72
2022/07/24 11:52:37;;;;;;;16.42;13.13;;;10.40;99.90;;;;;;4917935;29;20035;-72
2022/07/24 11:55:10;;;;;;;16.08;13.15;;;10.40;99.90;;;;;;4916641;29;20099;-72
2022/07/24 11:57:42;;;;;;;18.55;13.48;;;10.30;99.90;;;;;;4917142;29;20044;-73
2022/07/24 12:00:14;;;;;;;16.38;12.85;;;10.30;99.90;;;;;;4918564;29;20063;-73
2022/07/24 12:02:49;;;;;;;15.00;13.05;;;10.30;99.90;;;;;;4917421;29;20075;-72
2022/07/24 12:05:30;;;;;;;18.20;13.07;;;10.20;99.90;;;;;;4918308;29;20025;-72
2022/07/24 12:08:00;;;;;;;16.02;12.77;;;10.20;99.90;;;;;;4917152;29;20115;-72
2022/07/24 12:10:28;;;;;;;16.60;14.38;;;10.20;99.90;;;;;;4918010;29;20024;-72
2022/07/24 12:12:57;;;;;;;16.40;14.40;;;10.20;99.90;;;;;;4918906;29;20035;-72
2022/07/24 12:15:26;;;;;;;14.75;13.05;;;10.20;99.90;;;;;;4900703;29;20032;-72
2022/07/24 12:17:58;;;;;;;17.05;13.68;;;10.30;99.90;;;;;;4917685;29;20095;-72
2022/07/24 12:20:51;;;;;;;16.02;13.07;;;10.30;99.90;;;;;;4917568;29;20028;-72
2022/07/24 12:23:20;;;;;;;14.07;12.57;;;10.20;99.90;;;;;;4914038;29;20048;-71
2022/07/24 12:25:47;;;;;;;13.52;12.10;;;10.20;99.90;;;;;;4915778;29;20516;-70
2022/07/24 12:28:19;;;;;;;16.75;12.50;;;10.20;99.90;;;;;;4916037;29;20024;-73
2022/07/24 12:30:54;;;;;;;16.80;12.63;;;10.20;99.90;;;;;;4915875;29;20035;-73
2022/07/24 12:33:26;;;;;;;14.25;12.63;;;10.20;99.90;;;;;;4917250;29;20084;-71
2022/07/24 12:36:13;;;;;;;15.38;12.10;;;10.10;99.90;;;;;;4917195;29;20096;-72
2022/07/24 12:38:50;;;;;;;14.30;12.73;;;10.10;99.90;;;;;;4915862;29;20181;-72
2022/07/24 12:41:22;;;;;;;12.93;11.52;;;10.10;99.90;;;;;;4917103;29;20024;-71
2022/07/24 12:43:54;;;;;;;15.88;11.98;;;10.00;99.90;;;;;;4917132;29;20024;-71
2022/07/24 12:46:31;;;;;;;16.02;11.60;;;10.00;99.90;;;;;;4915694;29;20028;-72
2022/07/24 12:49:09;;;;;;;16.50;11.85;;;10.00;99.90;;;;;;4917056;29;20449;-72
2022/07/24 12:51:55;;;;;;;16.77;12.75;;;10.00;99.90;;;;;;4915659;29;20032;-72
2022/07/24 12:54:23;;;;;;;15.90;11.88;;;10.00;99.90;;;;;;4915543;29;20127;-72